sensor_id;sensor_type;location;lat;lon;timestamp;pressure;altitude;pressure_sealevel;temperature;humidity
48964;BME280;34776;48.180;16.420;2022-08-21T00:01:26;99494.69;;;18.98;76.30
48964;BME280;34776;48.180;16.420;2022-08-21T00:03:54;99487.31;;;19.00;76.36
48964;BME280;34776;48.180;16.420;2022-08-21T00:06:20;99492.44;;;19.03;76.32
48964;BME280;34776;48.180;16.420;2022-08-21T00:08:45;99490.44;;;19.05;76.07
48964;BME280;34776;48.180;16.420;2022-08-21T00:11:11;99484.47;;;19.01;76.13
48964;BME280;34776;48.180;16.420;2022-08-21T00:13:39;99479.94;;;19.02;76.23
48964;BME280;34776;48.180;16.420;2022-08-21T00:16:05;99480.94;;;19.01;76.18
48964;BME280;34776;48.180;16.420;2022-08-21T00:18:32;99485.19;;;19.03;76.19
48964;BME280;34776;48.180;16.420;2022-08-21T00:20:58;99479.41;;;18.98;76.39
48964;BME280;34776;48.180;16.420;2022-08-21T00:23:23;99470.88;;;18.93;76.60
48964;BME280;34776;48.180;16.420;2022-08-21T00:25:49;99482.47;;;18.94;76.62
48964;BME280;34776;48.180;16.420;2022-08-21T00:28:15;99473.44;;;18.95;76.31
48964;BME280;34776;48.180;16.420;2022-08-21T00:30:41;99472.84;;;18.91;76.20
48964;BME280;34776;48.180;16.420;2022-08-21T00:33:09;99462.66;;;18.95;76.20
48964;BME280;34776;48.180;16.420;2022-08-21T00:35:38;99471.72;;;18.94;75.80
48964;BME280;34776;48.180;16.420;2022-08-21T00:38:05;99467.34;;;18.93;76.01
48964;BME280;34776;48.180;16.420;2022-08-21T00:40:38;99459.25;;;18.93;75.97
48964;BME280;34776;48.180;16.420;2022-08-21T00:43:05;99463.81;;;18.92;75.73
48964;BME280;34776;48.180;16.420;2022-08-21T00:45:31;99456.56;;;18.93;75.82
48964;BME280;34776;48.180;16.420;2022-08-21T00:47:57;99466.31;;;18.94;75.67
48964;BME280;34776;48.180;16.420;2022-08-21T00:50:25;99465.63;;;18.92;75.80
48964;BME280;34776;48.180;16.420;2022-08-21T00:52:52;99469.56;;;18.88;75.80
48964;BME280;34776;48.180;16.420;2022-08-21T00:55:20;99459.69;;;18.88;75.74
48964;BME280;34776;48.180;16.420;2022-08-21T00:57:48;99469.19;;;18.92;75.79
48964;BME280;34776;48.180;16.420;2022-08-21T01:00:17;99472.72;;;18.93;75.45
48964;BME280;34776;48.180;16.420;2022-08-21T01:02:44;99471.44;;;18.97;75.57
48964;BME280;34776;48.180;16.420;2022-08-21T01:05:10;99471.16;;;19.00;75.37
48964;BME280;34776;48.180;16.420;2022-08-21T01:07:36;99469.47;;;18.99;75.45
48964;BME280;34776;48.180;16.420;2022-08-21T01:10:03;99463.78;;;19.02;75.20
48964;BME280;34776;48.180;16.420;2022-08-21T01:12:30;99470.88;;;19.03;74.98
48964;BME280;34776;48.180;16.420;2022-08-21T01:14:56;99460.97;;;19.03;75.02
48964;BME280;34776;48.180;16.420;2022-08-21T01:17:21;99459.81;;;19.06;74.96
48964;BME280;34776;48.180;16.420;2022-08-21T01:19:47;99462.94;;;19.11;74.74
48964;BME280;34776;48.180;16.420;2022-08-21T01:22:13;99450.19;;;19.13;74.58
48964;BME280;34776;48.180;16.420;2022-08-21T01:24:38;99447.63;;;19.21;74.42
48964;BME280;34776;48.180;16.420;2022-08-21T01:27:04;99457.53;;;19.31;74.21
48964;BME280;34776;48.180;16.420;2022-08-21T01:29:43;99453.25;;;19.38;73.68
48964;BME280;34776;48.180;16.420;2022-08-21T01:32:13;99446.59;;;19.42;73.74
48964;BME280;34776;48.180;16.420;2022-08-21T01:34:42;99449.28;;;19.42;73.67
48964;BME280;34776;48.180;16.420;2022-08-21T01:37:08;99453.56;;;19.44;73.75
48964;BME280;34776;48.180;16.420;2022-08-21T01:39:34;99442.94;;;19.43;73.62
48964;BME280;34776;48.180;16.420;2022-08-21T01:42:00;99446.75;;;19.40;73.77
48964;BME280;34776;48.180;16.420;2022-08-21T01:44:26;99437.09;;;19.38;73.99
48964;BME280;34776;48.180;16.420;2022-08-21T01:46:52;99432.28;;;19.32;74.45
48964;BME280;34776;48.180;16.420;2022-08-21T01:49:18;99435.41;;;19.27;74.49
48964;BME280;34776;48.180;16.420;2022-08-21T01:51:43;99430.47;;;19.22;74.68
48964;BME280;34776;48.180;16.420;2022-08-21T01:54:09;99420.97;;;19.18;75.23
48964;BME280;34776;48.180;16.420;2022-08-21T01:56:44;99420.69;;;19.12;76.13
48964;BME280;34776;48.180;16.420;2022-08-21T01:59:11;99425.53;;;19.08;76.16
48964;BME280;34776;48.180;16.420;2022-08-21T02:01:37;99427.53;;;18.96;76.44
48964;BME280;34776;48.180;16.420;2022-08-21T02:04:05;99424.97;;;18.95;76.83
48964;BME280;34776;48.180;16.420;2022-08-21T02:06:31;99417.59;;;18.87;77.24
48964;BME280;34776;48.180;16.420;2022-08-21T02:08:56;99421.41;;;18.84;77.45
48964;BME280;34776;48.180;16.420;2022-08-21T02:11:22;99416.75;;;18.86;77.36
48964;BME280;34776;48.180;16.420;2022-08-21T02:13:47;99415.03;;;18.85;77.45
48964;BME280;34776;48.180;16.420;2022-08-21T02:16:13;99411.63;;;18.83;77.50
48964;BME280;34776;48.180;16.420;2022-08-21T02:18:38;99412.34;;;18.85;78.02
48964;BME280;34776;48.180;16.420;2022-08-21T02:21:05;99406.09;;;18.85;78.07
48964;BME280;34776;48.180;16.420;2022-08-21T02:23:31;99405.41;;;18.83;77.94
48964;BME280;34776;48.180;16.420;2022-08-21T02:25:57;99402.84;;;18.81;78.22
48964;BME280;34776;48.180;16.420;2022-08-21T02:28:24;99398.88;;;18.85;78.04
48964;BME280;34776;48.180;16.420;2022-08-21T02:30:50;99408.53;;;18.78;78.18
48964;BME280;34776;48.180;16.420;2022-08-21T02:33:16;99407.91;;;18.75;78.76
48964;BME280;34776;48.180;16.420;2022-08-21T02:35:43;99399.72;;;18.76;79.09
48964;BME280;34776;48.180;16.420;2022-08-21T02:38:12;99412.47;;;18.74;78.82
48964;BME280;34776;48.180;16.420;2022-08-21T02:40:40;99413.91;;;18.78;78.90
48964;BME280;34776;48.180;16.420;2022-08-21T02:43:06;99408.09;;;18.83;78.67
48964;BME280;34776;48.180;16.420;2022-08-21T02:45:33;99409.06;;;18.92;78.18
48964;BME280;34776;48.180;16.420;2022-08-21T02:48:02;99403.69;;;18.92;78.13
48964;BME280;34776;48.180;16.420;2022-08-21T02:50:32;99409.06;;;18.92;78.35
48964;BME280;34776;48.180;16.420;2022-08-21T02:52:58;99414.47;;;18.92;78.40
48964;BME280;34776;48.180;16.420;2022-08-21T02:55:26;99410.22;;;18.99;78.21
48964;BME280;34776;48.180;16.420;2022-08-21T02:57:53;99417.59;;;18.97;77.96
48964;BME280;34776;48.180;16.420;2022-08-21T03:00:19;99420.28;;;18.97;78.33
48964;BME280;34776;48.180;16.420;2022-08-21T03:02:46;99421.84;;;18.99;78.11
48964;BME280;34776;48.180;16.420;2022-08-21T03:05:12;99421.84;;;18.99;78.12
48964;BME280;34776;48.180;16.420;2022-08-21T03:07:41;99420.69;;;19.02;78.04
48964;BME280;34776;48.180;16.420;2022-08-21T03:10:07;99430.19;;;19.06;77.90
48964;BME280;34776;48.180;16.420;2022-08-21T03:12:33;99427.22;;;19.09;77.88
48964;BME280;34776;48.180;16.420;2022-08-21T03:15:01;99424.94;;;19.14;77.38
48964;BME280;34776;48.180;16.420;2022-08-21T03:17:27;99424.09;;;19.14;77.55
48964;BME280;34776;48.180;16.420;2022-08-21T03:19:52;99422.97;;;19.16;77.47
48964;BME280;34776;48.180;16.420;2022-08-21T03:22:18;99422.38;;;19.22;77.05
48964;BME280;34776;48.180;16.420;2022-08-21T03:24:43;99414.72;;;19.27;76.64
48964;BME280;34776;48.180;16.420;2022-08-21T03:27:10;99414.44;;;19.31;76.12
48964;BME280;34776;48.180;16.420;2022-08-21T03:29:37;99423.50;;;19.30;76.22
48964;BME280;34776;48.180;16.420;2022-08-21T03:32:03;99424.38;;;19.20;76.09
48964;BME280;34776;48.180;16.420;2022-08-21T03:34:28;99418.72;;;19.23;76.31
48964;BME280;34776;48.180;16.420;2022-08-21T03:36:54;99428.19;;;19.27;76.03
48964;BME280;34776;48.180;16.420;2022-08-21T03:39:19;99431.88;;;19.26;75.75
48964;BME280;34776;48.180;16.420;2022-08-21T03:41:45;99416.03;;;19.23;75.84
48964;BME280;34776;48.180;16.420;2022-08-21T03:44:10;99426.91;;;19.32;75.70
48964;BME280;34776;48.180;16.420;2022-08-21T03:46:36;99416.13;;;19.32;75.40
48964;BME280;34776;48.180;16.420;2022-08-21T03:49:02;99423.22;;;19.33;74.99
48964;BME280;34776;48.180;16.420;2022-08-21T03:51:28;99419.81;;;19.31;74.99
48964;BME280;34776;48.180;16.420;2022-08-21T03:53:53;99428.63;;;19.33;74.95
48964;BME280;34776;48.180;16.420;2022-08-21T03:56:19;99434.84;;;19.33;74.88
48964;BME280;34776;48.180;16.420;2022-08-21T03:58:45;99441.66;;;19.27;75.10
48964;BME280;34776;48.180;16.420;2022-08-21T04:01:10;99446.31;;;19.25;75.22
48964;BME280;34776;48.180;16.420;2022-08-21T04:03:37;99447.34;;;19.24;75.09
48964;BME280;34776;48.180;16.420;2022-08-21T04:06:03;99445.94;;;19.30;74.95
48964;BME280;34776;48.180;16.420;2022-08-21T04:08:29;99442.78;;;19.35;74.44
48964;BME280;34776;48.180;16.420;2022-08-21T04:10:56;99442.78;;;19.35;74.36
48964;BME280;34776;48.180;16.420;2022-08-21T04:13:22;99444.47;;;19.36;74.34
48964;BME280;34776;48.180;16.420;2022-08-21T04:15:48;99447.16;;;19.36;74.44
48964;BME280;34776;48.180;16.420;2022-08-21T04:18:13;99444.47;;;19.36;74.10
48964;BME280;34776;48.180;16.420;2022-08-21T04:20:40;99453.56;;;19.35;74.00
48964;BME280;34776;48.180;16.420;2022-08-21T04:23:07;99461.66;;;19.35;74.27
48964;BME280;34776;48.180;16.420;2022-08-21T04:25:32;99456.13;;;19.26;74.55
48964;BME280;34776;48.180;16.420;2022-08-21T04:27:58;99454.41;;;19.25;74.42
48964;BME280;34776;48.180;16.420;2022-08-21T04:30:24;99459.22;;;19.32;74.40
48964;BME280;34776;48.180;16.420;2022-08-21T04:32:50;99464.78;;;19.30;74.01
48964;BME280;34776;48.180;16.420;2022-08-21T04:35:20;99461.66;;;19.35;73.82
48964;BME280;34776;48.180;16.420;2022-08-21T04:37:46;99473.13;;;19.37;73.60
48964;BME280;34776;48.180;16.420;2022-08-21T04:40:13;99462.63;;;19.34;73.79
48964;BME280;34776;48.180;16.420;2022-08-21T04:42:49;99480.22;;;19.38;73.47
48964;BME280;34776;48.180;16.420;2022-08-21T04:45:18;99468.88;;;19.44;73.39
48964;BME280;34776;48.180;16.420;2022-08-21T04:47:47;99463.47;;;19.44;73.38
48964;BME280;34776;48.180;16.420;2022-08-21T04:50:13;99459.78;;;19.45;73.39
48964;BME280;34776;48.180;16.420;2022-08-21T04:52:38;99462.75;;;19.52;73.30
48964;BME280;34776;48.180;16.420;2022-08-21T04:55:04;99465.72;;;19.58;73.10
48964;BME280;34776;48.180;16.420;2022-08-21T04:57:30;99474.25;;;19.63;72.93
48964;BME280;34776;48.180;16.420;2022-08-21T04:59:55;99458.47;;;19.68;72.74
48964;BME280;34776;48.180;16.420;2022-08-21T05:02:21;99466.28;;;19.72;72.56
48964;BME280;34776;48.180;16.420;2022-08-21T05:04:50;99472.94;;;19.87;72.50
48964;BME280;34776;48.180;16.420;2022-08-21T05:07:21;99469.19;;;19.98;71.98
48964;BME280;34776;48.180;16.420;2022-08-21T05:09:47;99466.63;;;19.96;71.92
48964;BME280;34776;48.180;16.420;2022-08-21T05:12:13;99469.06;;;19.99;71.79
48964;BME280;34776;48.180;16.420;2022-08-21T05:14:39;99476.84;;;20.02;71.57
48964;BME280;34776;48.180;16.420;2022-08-21T05:17:04;99474.25;;;20.11;71.38
48964;BME280;34776;48.180;16.420;2022-08-21T05:19:30;99473.66;;;20.17;71.10
48964;BME280;34776;48.180;16.420;2022-08-21T05:21:56;99471.09;;;20.43;70.48
48964;BME280;34776;48.180;16.420;2022-08-21T05:24:22;99468.88;;;20.66;69.54
48964;BME280;34776;48.180;16.420;2022-08-21T05:26:47;99474.31;;;20.84;69.16
48964;BME280;34776;48.180;16.420;2022-08-21T05:29:15;99467.91;;;21.03;68.11
48964;BME280;34776;48.180;16.420;2022-08-21T05:31:40;99457.53;;;21.16;67.27
48964;BME280;34776;48.180;16.420;2022-08-21T05:34:06;99464.25;;;21.12;67.22
48964;BME280;34776;48.180;16.420;2022-08-21T05:36:31;99466.81;;;21.14;67.18
48964;BME280;34776;48.180;16.420;2022-08-21T05:38:57;99462.03;;;21.25;67.08
48964;BME280;34776;48.180;16.420;2022-08-21T05:41:22;99454.63;;;21.27;66.74
48964;BME280;34776;48.180;16.420;2022-08-21T05:43:48;99459.81;;;21.21;66.66
48964;BME280;34776;48.180;16.420;2022-08-21T05:46:14;99461.28;;;21.15;66.59
48964;BME280;34776;48.180;16.420;2022-08-21T05:48:39;99466.28;;;21.28;66.56
48964;BME280;34776;48.180;16.420;2022-08-21T05:51:09;99458.69;;;21.49;65.85
48964;BME280;34776;48.180;16.420;2022-08-21T05:53:35;99461.25;;;21.51;65.49
48964;BME280;34776;48.180;16.420;2022-08-21T05:56:01;99466.72;;;21.41;65.52
48964;BME280;34776;48.180;16.420;2022-08-21T05:58:29;99459.03;;;21.46;65.43
48964;BME280;34776;48.180;16.420;2022-08-21T06:00:55;99471.09;;;21.60;65.05
48964;BME280;34776;48.180;16.420;2022-08-21T06:03:24;99470.38;;;21.76;64.75
48964;BME280;34776;48.180;16.420;2022-08-21T06:05:51;99477.00;;;21.82;64.47
48964;BME280;34776;48.180;16.420;2022-08-21T06:08:17;99483.19;;;22.00;63.97
48964;BME280;34776;48.180;16.420;2022-08-21T06:10:44;99485.00;;;22.18;63.25
48964;BME280;34776;48.180;16.420;2022-08-21T06:13:11;99482.75;;;22.13;62.95
48964;BME280;34776;48.180;16.420;2022-08-21T06:15:37;99488.59;;;22.00;63.38
48964;BME280;34776;48.180;16.420;2022-08-21T06:18:03;99494.00;;;22.00;63.37
48964;BME280;34776;48.180;16.420;2022-08-21T06:20:29;99488.59;;;22.00;63.43
48964;BME280;34776;48.180;16.420;2022-08-21T06:22:54;99486.81;;;21.83;63.58
48964;BME280;34776;48.180;16.420;2022-08-21T06:25:20;99486.81;;;21.83;63.62
48964;BME280;34776;48.180;16.420;2022-08-21T06:27:46;99482.78;;;21.87;63.99
48964;BME280;34776;48.180;16.420;2022-08-21T06:30:12;99485.53;;;21.95;63.13
48964;BME280;34776;48.180;16.420;2022-08-21T06:32:38;99491.94;;;21.94;63.02
48964;BME280;34776;48.180;16.420;2022-08-21T06:35:05;99480.41;;;21.84;63.00
48964;BME280;34776;48.180;16.420;2022-08-21T06:37:31;99486.81;;;21.83;63.31
48964;BME280;34776;48.180;16.420;2022-08-21T06:39:57;99488.94;;;21.97;62.75
48964;BME280;34776;48.180;16.420;2022-08-21T06:42:22;99487.31;;;22.13;62.13
48964;BME280;34776;48.180;16.420;2022-08-21T06:44:48;99499.22;;;22.20;61.87
48964;BME280;34776;48.180;16.420;2022-08-21T06:47:16;99491.25;;;22.18;61.66
48964;BME280;34776;48.180;16.420;2022-08-21T06:49:41;99480.97;;;22.22;61.55
48964;BME280;34776;48.180;16.420;2022-08-21T06:52:12;99479.34;;;22.37;61.08
48964;BME280;34776;48.180;16.420;2022-08-21T06:54:38;99483.31;;;22.51;60.89
48964;BME280;34776;48.180;16.420;2022-08-21T06:57:05;99490.31;;;22.70;60.00
48964;BME280;34776;48.180;16.420;2022-08-21T06:59:31;99486.22;;;22.58;60.11
48964;BME280;34776;48.180;16.420;2022-08-21T07:01:58;99487.50;;;22.45;60.32
48964;BME280;34776;48.180;16.420;2022-08-21T07:04:23;99490.88;;;22.39;61.04
48964;BME280;34776;48.180;16.420;2022-08-21T07:06:49;99490.28;;;22.27;61.11
48964;BME280;34776;48.180;16.420;2022-08-21T07:09:14;99493.81;;;22.20;61.53
48964;BME280;34776;48.180;16.420;2022-08-21T07:11:40;99501.53;;;22.15;61.52
48964;BME280;34776;48.180;16.420;2022-08-21T07:14:06;99492.53;;;22.06;61.30
48964;BME280;34776;48.180;16.420;2022-08-21T07:16:31;99494.84;;;21.93;61.90
48964;BME280;34776;48.180;16.420;2022-08-21T07:18:56;99501.34;;;21.82;61.91
48964;BME280;34776;48.180;16.420;2022-08-21T07:21:22;99500.78;;;21.52;62.70
48964;BME280;34776;48.180;16.420;2022-08-21T07:23:49;99511.44;;;21.36;63.44
48964;BME280;34776;48.180;16.420;2022-08-21T07:26:18;99509.13;;;21.41;63.41
48964;BME280;34776;48.180;16.420;2022-08-21T07:28:46;99504.81;;;21.48;63.43
48964;BME280;34776;48.180;16.420;2022-08-21T07:31:14;99497.72;;;21.47;63.49
48964;BME280;34776;48.180;16.420;2022-08-21T07:33:41;99493.22;;;21.38;63.62
48964;BME280;34776;48.180;16.420;2022-08-21T07:36:07;99501.09;;;21.49;63.59
48964;BME280;34776;48.180;16.420;2022-08-21T07:38:33;99503.41;;;21.44;63.45
48964;BME280;34776;48.180;16.420;2022-08-21T07:41:00;99510.56;;;21.35;63.66
48964;BME280;34776;48.180;16.420;2022-08-21T07:43:27;99505.88;;;21.19;64.05
48964;BME280;34776;48.180;16.420;2022-08-21T07:45:53;99504.50;;;21.15;64.26
48964;BME280;34776;48.180;16.420;2022-08-21T07:48:23;99509.22;;;21.13;64.51
48964;BME280;34776;48.180;16.420;2022-08-21T07:50:48;99503.34;;;21.18;64.51
48964;BME280;34776;48.180;16.420;2022-08-21T07:53:15;99503.56;;;21.24;64.47
48964;BME280;34776;48.180;16.420;2022-08-21T07:55:41;99510.28;;;21.20;64.31
48964;BME280;34776;48.180;16.420;2022-08-21T07:58:06;99502.50;;;21.17;64.76
48964;BME280;34776;48.180;16.420;2022-08-21T08:00:32;99507.50;;;21.12;64.92
48964;BME280;34776;48.180;16.420;2022-08-21T08:02:58;99505.34;;;21.16;65.13
48964;BME280;34776;48.180;16.420;2022-08-21T08:05:26;99500.84;;;21.24;65.08
48964;BME280;34776;48.180;16.420;2022-08-21T08:07:52;99493.16;;;21.47;65.14
48964;BME280;34776;48.180;16.420;2022-08-21T08:10:18;99489.66;;;21.81;64.55
48964;BME280;34776;48.180;16.420;2022-08-21T08:12:44;99490.91;;;22.47;63.47
48964;BME280;34776;48.180;16.420;2022-08-21T08:15:16;99487.16;;;22.91;61.80
48964;BME280;34776;48.180;16.420;2022-08-21T08:17:42;99487.88;;;23.18;61.35
48964;BME280;34776;48.180;16.420;2022-08-21T08:20:10;99482.63;;;23.08;61.77
48964;BME280;34776;48.180;16.420;2022-08-21T08:22:37;99481.28;;;23.86;60.92
48964;BME280;34776;48.180;16.420;2022-08-21T08:25:05;99485.28;;;24.06;59.66
48964;BME280;34776;48.180;16.420;2022-08-21T08:27:31;99478.03;;;23.74;60.23
48964;BME280;34776;48.180;16.420;2022-08-21T08:29:58;99482.63;;;23.57;60.84
48964;BME280;34776;48.180;16.420;2022-08-21T08:32:27;99485.69;;;23.62;60.40
48964;BME280;34776;48.180;16.420;2022-08-21T08:34:52;99475.16;;;23.26;60.97
48964;BME280;34776;48.180;16.420;2022-08-21T08:37:19;99479.03;;;22.91;61.53
48964;BME280;34776;48.180;16.420;2022-08-21T08:39:45;99479.63;;;22.68;62.36
48964;BME280;34776;48.180;16.420;2022-08-21T08:42:20;99469.59;;;22.53;62.44
48964;BME280;34776;48.180;16.420;2022-08-21T08:44:56;99484.81;;;22.45;62.51
48964;BME280;34776;48.180;16.420;2022-08-21T08:47:25;99483.78;;;22.46;62.72
48964;BME280;34776;48.180;16.420;2022-08-21T08:50:12;99468.22;;;22.48;62.16
48964;BME280;34776;48.180;16.420;2022-08-21T08:53:32;99480.97;;;22.64;61.22
48964;BME280;34776;48.180;16.420;2022-08-21T08:55:56;99474.72;;;22.80;61.33
48964;BME280;34776;48.180;16.420;2022-08-21T08:58:36;99489.34;;;22.87;60.49
48964;BME280;34776;48.180;16.420;2022-08-21T09:01:12;99477.38;;;23.06;60.55
48964;BME280;34776;48.180;16.420;2022-08-21T09:03:40;99479.91;;;23.33;60.19
48964;BME280;34776;48.180;16.420;2022-08-21T09:06:37;99477.03;;;23.50;58.87
48964;BME280;34776;48.180;16.420;2022-08-21T09:12:30;99494.28;;;24.15;56.71
48964;BME280;34776;48.180;16.420;2022-08-21T09:20:53;99471.78;;;23.57;59.14
48964;BME280;34776;48.180;16.420;2022-08-21T09:23:46;99466.66;;;23.70;59.53
48964;BME280;34776;48.180;16.420;2022-08-21T09:26:19;99473.13;;;23.94;60.19
48964;BME280;34776;48.180;16.420;2022-08-21T09:28:45;99471.88;;;24.13;59.84
48964;BME280;34776;48.180;16.420;2022-08-21T09:31:23;99472.81;;;23.23;62.59
48964;BME280;34776;48.180;16.420;2022-08-21T09:33:50;99476.06;;;22.60;65.47
48964;BME280;34776;48.180;16.420;2022-08-21T09:39:02;99469.81;;;22.25;68.16
48964;BME280;34776;48.180;16.420;2022-08-21T09:41:31;99485.56;;;22.64;68.48
48964;BME280;34776;48.180;16.420;2022-08-21T09:43:57;99466.53;;;23.15;67.15
48964;BME280;34776;48.180;16.420;2022-08-21T09:46:25;99466.03;;;23.60;66.10
48964;BME280;34776;48.180;16.420;2022-08-21T09:48:57;99478.56;;;23.94;64.35
48964;BME280;34776;48.180;16.420;2022-08-21T09:51:28;99466.00;;;23.77;64.36
48964;BME280;34776;48.180;16.420;2022-08-21T09:57:00;99468.19;;;23.89;64.37
48964;BME280;34776;48.180;16.420;2022-08-21T09:59:43;99455.38;;;24.15;62.64
48964;BME280;34776;48.180;16.420;2022-08-21T10:02:29;99451.03;;;23.97;61.55
48964;BME280;34776;48.180;16.420;2022-08-21T10:05:01;99456.50;;;23.89;62.00
48964;BME280;34776;48.180;16.420;2022-08-21T10:07:29;99449.38;;;23.88;62.22
48964;BME280;34776;48.180;16.420;2022-08-21T10:10:17;99452.25;;;23.86;62.09
48964;BME280;34776;48.180;16.420;2022-08-21T10:13:20;99447.69;;;23.70;62.02
48964;BME280;34776;48.180;16.420;2022-08-21T10:24:29;99457.13;;;22.76;63.69
48964;BME280;34776;48.180;16.420;2022-08-21T10:29:59;99463.94;;;22.03;66.97
48964;BME280;34776;48.180;16.420;2022-08-21T10:32:33;99463.84;;;21.87;67.88
48964;BME280;34776;48.180;16.420;2022-08-21T10:35:27;99463.00;;;21.60;70.54
48964;BME280;34776;48.180;16.420;2022-08-21T10:48:28;99458.78;;;21.84;68.46
48964;BME280;34776;48.180;16.420;2022-08-21T10:54:12;99471.97;;;21.87;69.24
48964;BME280;34776;48.180;16.420;2022-08-21T10:56:43;99473.94;;;21.77;69.94
48964;BME280;34776;48.180;16.420;2022-08-21T11:01:47;99468.16;;;21.72;72.03
48964;BME280;34776;48.180;16.420;2022-08-21T11:04:20;99471.28;;;21.85;71.78
48964;BME280;34776;48.180;16.420;2022-08-21T11:07:16;99475.13;;;22.08;70.49
48964;BME280;34776;48.180;16.420;2022-08-21T11:09:40;99474.72;;;21.95;70.85
48964;BME280;34776;48.180;16.420;2022-08-21T11:12:47;99469.19;;;21.79;71.18
48964;BME280;34776;48.180;16.420;2022-08-21T11:15:28;99465.19;;;21.83;71.81
48964;BME280;34776;48.180;16.420;2022-08-21T11:23:50;99456.19;;;23.02;65.46
48964;BME280;34776;48.180;16.420;2022-08-21T11:29:07;99449.75;;;23.52;62.61
48964;BME280;34776;48.180;16.420;2022-08-21T11:34:29;99447.69;;;23.87;59.95
48964;BME280;34776;48.180;16.420;2022-08-21T11:37:15;99449.25;;;23.81;59.15
48964;BME280;34776;48.180;16.420;2022-08-21T11:44:53;99448.38;;;23.81;59.61
48964;BME280;34776;48.180;16.420;2022-08-21T11:47:36;99447.84;;;23.85;57.78
48964;BME280;34776;48.180;16.420;2022-08-21T11:50:13;99444.63;;;23.74;59.07
48964;BME280;34776;48.180;16.420;2022-08-21T11:52:51;99453.13;;;23.79;58.81
48964;BME280;34776;48.180;16.420;2022-08-21T11:58:08;99450.75;;;23.67;58.96
48964;BME280;34776;48.180;16.420;2022-08-21T12:00:39;99452.78;;;23.65;58.81
48964;BME280;34776;48.180;16.420;2022-08-21T12:03:10;99467.91;;;23.35;59.73
48964;BME280;34776;48.180;16.420;2022-08-21T12:05:40;99453.84;;;23.23;59.50
48964;BME280;34776;48.180;16.420;2022-08-21T12:08:13;99451.97;;;23.16;59.92
48964;BME280;34776;48.180;16.420;2022-08-21T12:10:42;99460.78;;;23.26;59.66
48964;BME280;34776;48.180;16.420;2022-08-21T12:13:27;99459.25;;;23.32;58.97
48964;BME280;34776;48.180;16.420;2022-08-21T12:16:05;99457.22;;;23.58;58.25
48964;BME280;34776;48.180;16.420;2022-08-21T12:18:31;99463.31;;;23.77;58.39
48964;BME280;34776;48.180;16.420;2022-08-21T12:21:05;99463.66;;;23.82;57.93
48964;BME280;34776;48.180;16.420;2022-08-21T12:23:48;99457.84;;;23.68;58.36
48964;BME280;34776;48.180;16.420;2022-08-21T12:26:24;99461.94;;;23.64;58.38
48964;BME280;34776;48.180;16.420;2022-08-21T12:29:07;99466.03;;;23.52;58.34
48964;BME280;34776;48.180;16.420;2022-08-21T12:31:48;99465.38;;;23.42;58.76
48964;BME280;34776;48.180;16.420;2022-08-21T12:34:15;99468.75;;;23.19;59.54
48964;BME280;34776;48.180;16.420;2022-08-21T12:36:48;99472.31;;;22.61;60.91
48964;BME280;34776;48.180;16.420;2022-08-21T12:39:22;99480.72;;;22.41;61.43
48964;BME280;34776;48.180;16.420;2022-08-21T12:44:31;99475.47;;;22.05;62.61
48964;BME280;34776;48.180;16.420;2022-08-21T12:47:11;99472.38;;;22.00;62.97
48964;BME280;34776;48.180;16.420;2022-08-21T12:49:49;99472.81;;;21.87;63.46
48964;BME280;34776;48.180;16.420;2022-08-21T12:52:35;99469.69;;;21.74;63.89
48964;BME280;34776;48.180;16.420;2022-08-21T12:55:02;99468.41;;;21.60;64.01
48964;BME280;34776;48.180;16.420;2022-08-21T12:57:29;99462.94;;;21.52;64.36
48964;BME280;34776;48.180;16.420;2022-08-21T13:00:06;99472.69;;;21.45;65.21
48964;BME280;34776;48.180;16.420;2022-08-21T13:02:45;99473.69;;;21.44;65.03
48964;BME280;34776;48.180;16.420;2022-08-21T13:05:16;99465.16;;;21.39;65.21
48964;BME280;34776;48.180;16.420;2022-08-21T13:07:46;99478.69;;;21.39;65.48
48964;BME280;34776;48.180;16.420;2022-08-21T13:10:23;99478.69;;;21.39;65.68
48964;BME280;34776;48.180;16.420;2022-08-21T13:12:50;99474.13;;;21.39;65.53
48964;BME280;34776;48.180;16.420;2022-08-21T13:15:25;99483.09;;;21.40;65.54
48964;BME280;34776;48.180;16.420;2022-08-21T13:17:52;99479.00;;;21.36;65.69
48964;BME280;34776;48.180;16.420;2022-08-21T13:20:24;99476.69;;;21.41;65.84
48964;BME280;34776;48.180;16.420;2022-08-21T13:22:50;99481.50;;;21.47;65.49
48964;BME280;34776;48.180;16.420;2022-08-21T13:25:18;99476.78;;;21.49;65.40
48964;BME280;34776;48.180;16.420;2022-08-21T13:27:59;99472.91;;;21.52;65.34
48964;BME280;34776;48.180;16.420;2022-08-21T13:30:24;99469.97;;;21.63;64.81
48964;BME280;34776;48.180;16.420;2022-08-21T13:32:55;99470.47;;;21.66;64.45
48964;BME280;34776;48.180;16.420;2022-08-21T13:35:36;99476.09;;;21.73;64.34
48964;BME280;34776;48.180;16.420;2022-08-21T13:38:03;99473.97;;;21.85;63.84
48964;BME280;34776;48.180;16.420;2022-08-21T13:40:32;99478.66;;;22.01;63.55
48964;BME280;34776;48.180;16.420;2022-08-21T13:42:59;99472.47;;;22.17;62.91
48964;BME280;34776;48.180;16.420;2022-08-21T13:45:31;99478.25;;;22.22;62.81
48964;BME280;34776;48.180;16.420;2022-08-21T13:47:59;99476.53;;;22.21;62.70
48964;BME280;34776;48.180;16.420;2022-08-21T13:50:25;99482.03;;;22.29;62.82
48964;BME280;34776;48.180;16.420;2022-08-21T13:53:02;99479.47;;;22.27;62.44
48964;BME280;34776;48.180;16.420;2022-08-21T13:55:54;99484.78;;;22.37;62.26
48964;BME280;34776;48.180;16.420;2022-08-21T13:58:42;99478.81;;;22.34;61.75
48964;BME280;34776;48.180;16.420;2022-08-21T14:03:45;99480.44;;;22.61;61.75
48964;BME280;34776;48.180;16.420;2022-08-21T14:06:16;99466.78;;;22.70;61.14
48964;BME280;34776;48.180;16.420;2022-08-21T14:08:50;99474.41;;;22.83;60.61